createdAt,value
2023-04-05T00:02:13.748Z,5.57
2023-04-05T00:04:42.876Z,5.37
2023-04-05T00:07:11.893Z,5.57
2023-04-05T00:09:39.205Z,5.23
2023-04-05T00:12:06.569Z,5.87
2023-04-05T00:14:33.870Z,5.17
2023-04-05T00:17:01.175Z,5.00
2023-04-05T00:19:28.471Z,5.10
2023-04-05T00:21:55.834Z,5.23
2023-04-05T00:24:24.122Z,5.30
2023-04-05T00:26:51.508Z,5.20
2023-04-05T00:29:18.920Z,5.50
2023-04-05T00:31:46.321Z,5.70
2023-04-05T00:34:13.734Z,5.60
2023-04-05T00:36:41.035Z,5.30
2023-04-05T00:39:08.448Z,4.93
2023-04-05T00:41:36.571Z,5.73
2023-04-05T00:44:04.024Z,5.03
2023-04-05T00:46:32.964Z,5.83
2023-04-05T00:49:00.540Z,4.97
2023-04-05T00:51:28.072Z,5.17
2023-04-05T00:53:55.897Z,5.50
2023-04-05T00:56:24.285Z,5.67
2023-04-05T00:58:54.434Z,5.00
2023-04-05T01:01:26.078Z,4.90
2023-04-05T01:03:54.204Z,5.73
2023-04-05T01:06:38.191Z,5.40
2023-04-05T01:09:07.072Z,5.43
2023-04-05T01:11:35.849Z,5.40
2023-04-05T01:14:03.232Z,5.57
2023-04-05T01:16:30.605Z,4.70
2023-04-05T01:18:58.357Z,5.53
2023-04-05T01:21:39.290Z,5.10
2023-04-05T01:24:09.705Z,5.37
2023-04-05T01:26:44.396Z,5.00
2023-04-05T01:29:25.626Z,5.60
2023-04-05T01:32:03.503Z,5.30
2023-04-05T01:34:32.491Z,5.37
2023-04-05T01:37:03.928Z,6.30
2023-04-05T01:39:31.712Z,5.30
2023-04-05T01:42:01.094Z,6.03
2023-04-05T01:44:29.148Z,5.30
2023-04-05T01:46:56.518Z,5.10
2023-04-05T01:49:24.674Z,6.07
2023-04-05T01:51:52.109Z,5.63
2023-04-05T01:54:19.497Z,5.57
2023-04-05T01:56:46.961Z,5.80
2023-04-05T01:59:14.296Z,5.70
2023-04-05T02:01:41.749Z,5.57
2023-04-05T02:04:09.049Z,5.70
2023-04-05T02:06:36.424Z,5.70
2023-04-05T02:09:03.822Z,5.60
2023-04-05T02:11:31.120Z,6.30
2023-04-05T02:13:58.511Z,5.30
2023-04-05T02:16:26.900Z,6.20
2023-04-05T02:18:57.574Z,5.40
2023-04-05T02:21:26.565Z,5.70
2023-04-05T02:23:54.330Z,6.30
2023-04-05T02:26:21.849Z,5.83
2023-04-05T02:28:49.143Z,5.70
2023-04-05T02:31:16.546Z,5.70
2023-04-05T02:33:43.905Z,6.30
2023-04-05T02:36:12.433Z,5.70
2023-04-05T02:38:39.808Z,5.77
2023-04-05T02:41:11.463Z,6.37
2023-04-05T02:43:39.227Z,6.10
2023-04-05T02:46:06.855Z,6.60
2023-04-05T02:48:34.191Z,5.63
2023-04-05T02:51:01.563Z,4.80
2023-04-05T02:53:28.952Z,5.40
2023-04-05T02:55:57.102Z,5.77
2023-04-05T02:58:24.941Z,5.20
2023-04-05T03:00:54.108Z,5.50
2023-04-05T03:03:22.030Z,5.23
2023-04-05T03:05:49.854Z,5.47
2023-04-05T03:08:19.669Z,5.77
2023-04-05T03:10:47.478Z,5.10
2023-04-05T03:13:15.152Z,5.60
2023-04-05T03:15:42.682Z,6.37
2023-04-05T03:18:10.710Z,5.70
2023-04-05T03:20:41.565Z,6.10
2023-04-05T03:23:09.383Z,5.80
2023-04-05T03:25:41.537Z,5.80
2023-04-05T03:28:09.102Z,5.83
2023-04-05T03:30:36.557Z,5.87
2023-04-05T03:33:04.218Z,5.53
2023-04-05T03:35:31.685Z,5.90
2023-04-05T03:37:59.040Z,5.60
2023-04-05T03:40:26.409Z,5.70
2023-04-05T03:42:53.788Z,5.83
2023-04-05T03:45:23.991Z,6.17
2023-04-05T03:47:50.237Z,5.90
2023-04-05T03:50:17.828Z,5.57
2023-04-05T03:52:46.193Z,5.80
2023-04-05T03:55:17.943Z,5.60
2023-04-05T03:57:45.665Z,6.03
2023-04-05T04:00:17.118Z,5.80
2023-04-05T04:02:45.513Z,6.37
2023-04-05T04:05:13.521Z,7.00
2023-04-05T04:07:41.517Z,6.77
2023-04-05T04:10:10.217Z,5.97
2023-04-05T04:12:37.849Z,6.03
2023-04-05T04:15:05.580Z,6.63
2023-04-05T04:17:36.570Z,5.50
2023-04-05T04:20:08.964Z,5.70
2023-04-05T04:22:37.994Z,6.27
2023-04-05T04:25:08.185Z,5.50
2023-04-05T04:27:35.559Z,6.10
2023-04-05T04:30:03.797Z,5.60
2023-04-05T04:32:49.072Z,5.70
2023-04-05T04:35:18.637Z,6.87
2023-04-05T04:37:46.780Z,5.77
2023-04-05T04:40:18.202Z,7.17
2023-04-05T04:42:48.378Z,5.90
2023-04-05T04:45:19.326Z,5.70
2023-04-05T04:47:47.654Z,6.30
2023-04-05T04:50:15.820Z,6.10
2023-04-05T04:52:43.220Z,6.10
2023-04-05T04:55:12.385Z,6.27
2023-04-05T04:57:40.595Z,6.50
2023-04-05T05:00:10.544Z,7.10
2023-04-05T05:02:37.953Z,5.80
2023-04-05T05:05:05.994Z,6.00
2023-04-05T05:07:33.373Z,6.17
2023-04-05T05:10:01.187Z,5.77
2023-04-05T05:12:29.752Z,6.13
2023-04-05T05:14:57.113Z,6.20
2023-04-05T05:17:24.534Z,6.10
2023-04-05T05:19:51.887Z,6.40
2023-04-05T05:22:19.336Z,7.60
2023-04-05T05:24:47.862Z,5.30
2023-04-05T05:27:15.341Z,6.37
2023-04-05T05:29:42.784Z,6.40
2023-04-05T05:32:11.868Z,6.03
2023-04-05T05:34:39.268Z,6.00
2023-04-05T05:37:06.628Z,6.30
2023-04-05T05:39:34.017Z,6.43
2023-04-05T05:42:01.391Z,6.37
2023-04-05T05:44:29.130Z,5.50
2023-04-05T05:46:56.692Z,5.93
2023-04-05T05:49:24.070Z,5.90
2023-04-05T05:51:52.609Z,5.60
2023-04-05T05:54:20.226Z,5.27
2023-04-05T05:56:47.605Z,5.23
2023-04-05T05:59:15.707Z,5.17
2023-04-05T06:01:44.725Z,5.67
2023-04-05T06:04:12.110Z,5.80
2023-04-05T06:06:40.253Z,5.43
2023-04-05T06:09:07.583Z,4.90
2023-04-05T06:11:37.113Z,5.87
2023-04-05T06:14:04.119Z,9.10
2023-04-05T06:16:31.593Z,10.40
2023-04-05T06:18:59.032Z,7.87
2023-04-05T06:21:26.517Z,7.23
2023-04-05T06:23:54.049Z,6.73
2023-04-05T06:26:24.193Z,6.10
2023-04-05T06:28:51.495Z,5.00
2023-04-05T06:31:20.576Z,5.90
2023-04-05T06:33:47.937Z,6.07
2023-04-05T06:36:15.389Z,5.77
2023-04-05T06:38:42.881Z,5.77
2023-04-05T06:41:10.234Z,6.60
2023-04-05T06:43:37.612Z,6.00
2023-04-05T06:46:06.641Z,5.60
2023-04-05T06:48:34.026Z,6.47
2023-04-05T06:51:02.184Z,7.27
2023-04-05T06:53:30.200Z,6.70
2023-04-05T06:55:58.357Z,6.00
2023-04-05T06:58:26.432Z,5.73
2023-04-05T07:00:54.019Z,5.83
2023-04-05T07:03:21.395Z,5.20
2023-04-05T07:05:56.608Z,6.70
2023-04-05T07:08:24.367Z,6.37
2023-04-05T07:10:52.106Z,7.13
2023-04-05T07:13:19.873Z,7.20
2023-04-05T07:15:47.293Z,10.37
2023-04-05T07:18:17.495Z,7.63
2023-04-05T07:20:46.561Z,7.17
2023-04-05T07:23:13.980Z,6.70
2023-04-05T07:25:41.415Z,6.40
2023-04-05T07:28:08.787Z,5.97
2023-04-05T07:30:36.704Z,5.87
2023-04-05T07:33:04.270Z,5.97
2023-04-05T07:35:31.897Z,5.57
2023-04-05T07:37:59.308Z,5.73
2023-04-05T07:40:32.443Z,8.10
2023-04-05T07:42:59.831Z,6.93
2023-04-05T07:45:27.296Z,6.20
2023-04-05T07:47:54.788Z,6.00
2023-04-05T07:50:23.052Z,4.83
2023-04-05T07:52:50.426Z,5.73
2023-04-05T07:55:17.808Z,5.57
2023-04-05T07:57:45.638Z,4.77
2023-04-05T08:00:15.291Z,4.60
2023-04-05T08:02:42.773Z,4.47
2023-04-05T08:05:10.179Z,4.50
2023-04-05T08:07:37.842Z,4.70
2023-04-05T08:10:06.388Z,4.30
2023-04-05T08:12:35.723Z,4.63
2023-04-05T08:15:04.168Z,4.37
2023-04-05T08:17:31.685Z,4.60
2023-04-05T08:19:59.084Z,5.10
2023-04-05T08:22:29.433Z,4.20
2023-04-05T08:24:56.938Z,5.10
2023-04-05T08:27:26.006Z,5.50
2023-04-05T08:29:53.303Z,4.50
2023-04-05T08:32:20.742Z,4.67
2023-04-05T08:34:48.106Z,4.93
2023-04-05T08:37:15.617Z,4.70
2023-04-05T08:39:43.918Z,4.97
2023-04-05T08:42:12.823Z,3.87
2023-04-05T08:44:41.863Z,4.07
2023-04-05T08:47:10.081Z,3.60
2023-04-05T08:49:37.494Z,4.37
2023-04-05T08:52:05.917Z,4.40
2023-04-05T08:54:33.245Z,4.87
2023-04-05T08:57:03.465Z,4.50
2023-04-05T08:59:32.404Z,4.40
2023-04-05T09:02:02.117Z,4.37
2023-04-05T09:04:31.350Z,4.80
2023-04-05T09:07:02.045Z,4.87
2023-04-05T09:09:30.979Z,4.30
2023-04-05T09:11:58.339Z,4.20
2023-04-05T09:14:25.738Z,4.20
2023-04-05T09:16:53.319Z,4.87
2023-04-05T09:19:20.740Z,4.70
2023-04-05T09:22:06.456Z,4.40
2023-04-05T09:24:34.791Z,4.70
2023-04-05T09:27:06.217Z,4.50
2023-04-05T09:29:33.598Z,4.50
2023-04-05T09:32:04.347Z,5.10
2023-04-05T09:34:32.987Z,5.00
2023-04-05T09:37:01.105Z,4.50
2023-04-05T09:39:30.402Z,4.50
2023-04-05T09:42:11.500Z,4.87
2023-04-05T09:45:05.063Z,4.27
2023-04-05T09:47:34.646Z,4.47
2023-04-05T09:50:04.668Z,4.30
2023-04-05T09:52:32.523Z,4.23
2023-04-05T09:55:01.526Z,4.00
2023-04-05T09:57:32.303Z,4.20
2023-04-05T10:24:42.478Z,4.90
2023-04-05T10:27:11.427Z,4.07
2023-04-05T10:29:48.981Z,4.20
2023-04-05T10:32:20.872Z,3.97
2023-04-05T10:35:07.861Z,3.57
2023-04-05T10:37:53.689Z,4.23
2023-04-05T10:40:23.087Z,3.73
2023-04-05T10:42:51.869Z,3.60
2023-04-05T10:45:22.983Z,3.77
2023-04-05T10:47:57.686Z,3.87
2023-04-05T10:50:25.862Z,3.73
2023-04-05T10:52:56.172Z,4.20
2023-04-05T10:55:23.617Z,3.87
2023-04-05T10:57:51.258Z,3.40
2023-04-05T11:00:19.218Z,4.20
2023-04-05T11:02:47.482Z,3.20
2023-04-05T11:05:22.082Z,3.97
2023-04-05T11:07:50.884Z,4.17
2023-04-05T11:10:19.855Z,4.23
2023-04-05T11:12:49.045Z,4.17
2023-04-05T11:15:20.740Z,4.17
2023-04-05T11:17:50.609Z,4.00
2023-04-05T11:20:18.001Z,4.47
2023-04-05T11:22:46.847Z,4.30
2023-04-05T11:25:23.538Z,4.10
2023-04-05T11:27:52.520Z,4.00
2023-04-05T11:30:21.447Z,4.13
2023-04-05T11:32:48.801Z,3.73
2023-04-05T11:35:27.699Z,4.07
2023-04-05T11:37:56.897Z,4.40
2023-04-05T11:40:28.718Z,3.63
2023-04-05T11:43:03.786Z,3.70
2023-04-05T11:45:32.403Z,3.97
2023-04-05T11:48:01.514Z,4.23
2023-04-05T11:50:29.779Z,4.00
2023-04-05T11:53:10.675Z,4.17
2023-04-05T11:55:38.940Z,4.50
2023-04-05T11:58:11.201Z,4.30
2023-04-05T12:00:38.701Z,3.73
2023-04-05T12:03:06.282Z,4.00
2023-04-05T12:05:46.231Z,3.70
2023-04-05T12:08:13.665Z,4.20
2023-04-05T12:10:41.074Z,3.80
2023-04-05T12:13:08.449Z,3.80
2023-04-05T12:15:41.937Z,4.20
2023-04-05T12:18:15.551Z,4.30
2023-04-05T12:20:43.006Z,3.97
2023-04-05T12:23:10.640Z,3.53
2023-04-05T12:25:38.859Z,4.00
2023-04-05T12:28:08.773Z,4.00
2023-04-05T12:30:39.313Z,4.07
2023-04-05T12:33:09.618Z,3.80
2023-04-05T12:35:37.211Z,4.40
2023-04-05T12:38:05.822Z,3.37
2023-04-05T12:40:34.790Z,3.70
2023-04-05T12:43:03.801Z,3.80
2023-04-05T12:45:32.950Z,3.70
2023-04-05T12:48:00.951Z,3.60
2023-04-05T12:50:29.880Z,3.60
2023-04-05T12:52:58.613Z,4.20
2023-04-05T12:55:26.951Z,4.00
2023-04-05T12:57:54.793Z,3.83
2023-04-05T13:00:24.398Z,3.93
2023-04-05T13:02:53.488Z,3.77
2023-04-05T13:05:22.470Z,4.37
2023-04-05T13:07:50.870Z,3.80
2023-04-05T13:10:18.834Z,4.43
2023-04-05T13:12:46.861Z,4.37
2023-04-05T13:15:14.756Z,4.97
2023-04-05T13:17:42.926Z,4.70
2023-04-05T13:20:10.919Z,4.90
2023-04-05T13:22:38.646Z,4.30
2023-04-05T13:25:08.739Z,4.10
2023-04-05T13:27:36.115Z,4.20
2023-04-05T13:30:03.851Z,3.77
2023-04-05T13:32:31.298Z,4.10
2023-04-05T13:34:58.730Z,3.77
2023-04-05T13:37:26.417Z,3.70
2023-04-05T13:39:53.773Z,4.90
2023-04-05T13:42:21.414Z,4.40
2023-04-05T13:44:48.805Z,4.23
2023-04-05T13:47:16.183Z,4.37
2023-04-05T13:49:43.830Z,5.73
2023-04-05T13:52:11.558Z,3.97
2023-04-05T13:54:38.876Z,4.67
2023-04-05T13:57:06.247Z,4.03
2023-04-05T13:59:33.717Z,4.07
2023-04-05T14:02:01.161Z,3.37
2023-04-05T14:04:28.832Z,3.77
2023-04-05T14:06:56.466Z,3.57
2023-04-05T14:09:23.858Z,3.50
2023-04-05T14:11:51.238Z,3.97
2023-04-05T14:14:18.627Z,3.70
2023-04-05T14:16:46.408Z,3.80
2023-04-05T14:19:13.925Z,3.90
2023-04-05T14:21:41.287Z,3.27
2023-04-05T14:24:09.084Z,3.30
2023-04-05T14:26:36.446Z,3.53
2023-04-05T14:29:03.860Z,4.00
2023-04-05T14:31:31.259Z,3.50
2023-04-05T14:33:59.612Z,3.70
2023-04-05T14:36:26.987Z,4.10
2023-04-05T14:38:54.362Z,4.27
2023-04-05T14:41:21.741Z,4.10
2023-04-05T14:43:49.123Z,4.53
2023-04-05T14:46:16.601Z,4.03
2023-04-05T14:48:44.093Z,5.40
2023-04-05T14:51:11.496Z,4.43
2023-04-05T14:53:38.859Z,5.47
2023-04-05T14:56:06.328Z,4.90
2023-04-05T14:58:34.089Z,4.40
2023-04-05T15:01:01.499Z,3.80
2023-04-05T15:03:30.769Z,3.90
2023-04-05T15:05:57.928Z,3.73
2023-04-05T15:08:26.271Z,4.00
2023-04-05T15:10:53.738Z,6.60
2023-04-05T15:13:21.810Z,3.60
2023-04-05T15:15:49.182Z,4.67
2023-04-05T15:18:16.565Z,4.90
2023-04-05T15:20:44.043Z,4.50
2023-04-05T15:23:11.439Z,5.03
2023-04-05T15:25:38.816Z,4.30
2023-04-05T15:28:07.047Z,4.20
2023-04-05T15:30:34.524Z,4.07
2023-04-05T15:33:01.927Z,4.40
2023-04-05T15:35:29.329Z,3.60
2023-04-05T15:37:56.788Z,4.20
2023-04-05T15:40:24.178Z,4.37
2023-04-05T15:42:51.529Z,3.83
2023-04-05T15:45:18.843Z,4.27
2023-04-05T15:47:46.301Z,4.60
2023-04-05T15:50:13.708Z,4.07
2023-04-05T15:52:45.323Z,4.30
2023-04-05T15:55:12.727Z,4.60
2023-04-05T15:57:40.090Z,3.80
2023-04-05T16:00:09.918Z,4.53
2023-04-05T16:02:38.187Z,4.17
2023-04-05T16:05:05.819Z,3.93
2023-04-05T16:07:33.182Z,4.23
2023-04-05T16:10:01.012Z,4.30
2023-04-05T16:12:28.378Z,4.30
2023-04-05T16:14:55.861Z,4.10
2023-04-05T16:17:25.011Z,4.50
2023-04-05T16:19:53.635Z,4.10
2023-04-05T16:22:21.901Z,3.90
2023-04-05T16:24:49.304Z,3.97
2023-04-05T16:27:16.701Z,4.03
2023-04-05T16:29:44.068Z,3.80
2023-04-05T16:32:11.486Z,4.13
2023-04-05T16:34:38.846Z,4.03
2023-04-05T16:37:06.232Z,3.90
2023-04-05T16:39:33.619Z,3.90
2023-04-05T16:42:01.023Z,4.40
2023-04-05T16:44:30.367Z,4.00
2023-04-05T16:46:57.350Z,4.00
2023-04-05T16:49:24.740Z,4.17
2023-04-05T16:51:52.125Z,4.00
2023-04-05T16:54:19.510Z,3.43
2023-04-05T16:56:47.209Z,3.87
2023-04-05T16:59:14.658Z,3.70
2023-04-05T17:01:42.101Z,4.57
2023-04-05T17:04:09.507Z,5.57
2023-04-05T17:06:36.850Z,4.70
2023-04-05T17:09:04.392Z,4.00
2023-04-05T17:11:32.821Z,3.73
2023-04-05T17:14:00.204Z,3.50
2023-04-05T17:16:27.668Z,3.40
2023-04-05T17:18:55.346Z,3.70
2023-04-05T17:21:22.915Z,2.87
2023-04-05T17:23:50.365Z,3.47
2023-04-05T17:26:17.737Z,2.80
2023-04-05T17:28:45.135Z,3.30
2023-04-05T17:31:12.588Z,3.30
2023-04-05T17:33:40.456Z,3.43
2023-04-05T17:36:08.004Z,3.50
2023-04-05T17:38:35.339Z,3.83
2023-04-05T17:41:03.098Z,3.40
2023-04-05T17:43:30.422Z,3.37
2023-04-05T17:45:57.798Z,3.57
2023-04-05T17:48:25.602Z,3.20
2023-04-05T17:50:52.921Z,3.50
2023-04-05T17:53:20.554Z,2.87
2023-04-05T17:55:47.975Z,3.17
2023-04-05T17:58:15.283Z,3.47
2023-04-05T18:00:42.573Z,2.93
2023-04-05T18:03:10.068Z,3.80
2023-04-05T18:05:37.449Z,3.87
2023-04-05T18:10:39.606Z,4.03
2023-04-05T18:13:06.966Z,3.83
2023-04-05T18:15:34.351Z,3.87
2023-04-05T18:18:02.031Z,3.60
2023-04-05T18:20:29.384Z,4.03
2023-04-05T18:22:57.017Z,4.40
2023-04-05T18:25:24.401Z,3.67
2023-04-05T18:27:51.774Z,3.87
2023-04-05T18:30:19.155Z,3.80
2023-04-05T18:32:46.699Z,4.03
2023-04-05T18:35:14.060Z,4.47
2023-04-05T18:37:41.432Z,4.83
2023-04-05T18:40:09.104Z,4.70
2023-04-05T18:42:36.661Z,4.87
2023-04-05T18:45:04.218Z,5.17
2023-04-05T18:47:31.686Z,4.73
2023-04-05T18:49:59.148Z,4.83
2023-04-05T18:52:27.840Z,5.47
2023-04-05T18:54:56.796Z,4.93
2023-04-05T18:57:24.179Z,5.20
2023-04-05T18:59:51.579Z,4.77
2023-04-05T19:02:19.001Z,5.20
2023-04-05T19:04:46.356Z,5.03
2023-04-05T19:07:13.715Z,5.10
2023-04-05T19:09:41.048Z,5.53
2023-04-05T19:12:08.414Z,4.90
2023-04-05T19:14:35.942Z,4.37
2023-04-05T19:17:03.395Z,5.10
2023-04-05T19:19:31.829Z,5.87
2023-04-05T19:21:59.503Z,5.40
2023-04-05T19:24:28.952Z,5.53
2023-04-05T19:26:57.941Z,5.00
2023-04-05T19:29:25.511Z,5.00
2023-04-05T19:31:54.410Z,4.40
2023-04-05T19:34:21.724Z,4.80
2023-04-05T19:36:49.196Z,4.53
2023-04-05T19:39:16.832Z,5.27
2023-04-05T19:41:44.193Z,5.40
2023-04-05T19:44:12.213Z,5.57
2023-04-05T19:46:40.760Z,5.13
2023-04-05T19:49:10.233Z,5.20
2023-04-05T19:51:37.675Z,5.17
2023-04-05T19:54:08.232Z,4.70
2023-04-05T19:56:37.153Z,5.33
2023-04-05T19:59:06.241Z,4.87
2023-04-05T20:01:35.184Z,5.80
2023-04-05T20:04:13.127Z,5.10
2023-04-05T20:06:42.135Z,4.80
2023-04-05T20:09:11.241Z,5.00
2023-04-05T20:11:38.618Z,4.73
2023-04-05T20:14:06.244Z,5.17
2023-04-05T20:16:34.704Z,4.63
2023-04-05T20:19:03.597Z,4.67
2023-04-05T20:21:31.994Z,5.23
2023-04-05T20:24:00.352Z,4.60
2023-04-05T20:26:28.992Z,4.53
2023-04-05T20:28:57.048Z,4.60
2023-04-05T20:31:29.024Z,4.93
2023-04-05T20:34:15.868Z,5.00
2023-04-05T20:36:53.313Z,5.00
2023-04-05T20:39:22.295Z,4.37
2023-04-05T20:41:49.921Z,5.00
2023-04-05T20:44:17.236Z,5.30
2023-04-05T20:46:44.675Z,5.97
2023-04-05T20:49:13.065Z,4.20
2023-04-05T20:51:42.657Z,5.00
2023-04-05T20:54:09.442Z,5.10
2023-04-05T20:56:36.806Z,4.53
2023-04-05T20:59:04.212Z,4.60
2023-04-05T21:01:31.845Z,4.83
2023-04-05T21:03:59.196Z,4.13
2023-04-05T21:06:26.570Z,4.70
2023-04-05T21:08:53.982Z,4.23
2023-04-05T21:11:21.352Z,3.97
2023-04-05T21:13:48.928Z,5.60
2023-04-05T21:16:16.418Z,5.00
2023-04-05T21:18:43.747Z,4.90
2023-04-05T21:21:11.913Z,4.00
2023-04-05T21:23:39.246Z,4.30
2023-04-05T21:26:07.098Z,4.83
2023-04-05T21:28:34.509Z,4.53
2023-04-05T21:31:01.915Z,4.50
2023-04-05T21:33:29.266Z,4.33
2023-04-05T21:35:56.666Z,4.60
2023-04-05T21:40:55.855Z,5.23
2023-04-05T21:43:27.494Z,4.03
2023-04-05T21:45:54.871Z,4.23
2023-04-05T21:48:23.965Z,4.57
2023-04-05T21:50:51.339Z,4.80
2023-04-05T21:53:18.836Z,5.20
2023-04-05T21:55:46.205Z,4.57
2023-04-05T21:58:13.575Z,4.30
2023-04-05T22:00:41.142Z,4.40
2023-04-05T22:03:08.477Z,4.50
2023-04-05T22:05:38.654Z,5.10
2023-04-05T22:08:05.622Z,4.27
2023-04-05T22:10:33.385Z,5.20
2023-04-05T22:13:00.744Z,5.03
2023-04-05T22:15:28.153Z,4.30
2023-04-05T22:17:55.575Z,4.60
2023-04-05T22:20:22.917Z,4.63
2023-04-05T22:22:50.296Z,4.57
2023-04-05T22:25:17.678Z,3.90
2023-04-05T22:27:45.121Z,4.83
2023-04-05T22:30:12.818Z,4.70
2023-04-05T22:32:40.342Z,4.40
2023-04-05T22:35:07.817Z,4.70
2023-04-05T22:37:39.794Z,5.20
2023-04-05T22:40:07.842Z,4.30
2023-04-05T22:42:35.366Z,4.70
2023-04-05T22:45:02.734Z,4.87
2023-04-05T22:47:30.190Z,5.43
2023-04-05T22:49:57.574Z,4.80
2023-04-05T22:52:24.959Z,5.30
2023-04-05T22:54:52.408Z,4.80
2023-04-05T22:57:19.774Z,5.20
2023-04-05T22:59:47.156Z,4.50
2023-04-05T23:02:14.604Z,4.80
2023-04-05T23:04:41.952Z,4.40
2023-04-05T23:07:09.296Z,5.13
2023-04-05T23:09:36.752Z,4.90
2023-04-05T23:12:04.199Z,5.37
2023-04-05T23:14:31.590Z,4.87
2023-04-05T23:16:58.962Z,5.30
2023-04-05T23:19:26.808Z,4.90
2023-04-05T23:21:55.214Z,4.77
2023-04-05T23:24:22.536Z,5.20
2023-04-05T23:26:49.906Z,5.17
2023-04-05T23:29:18.668Z,4.97
2023-04-05T23:31:47.998Z,4.70
2023-04-05T23:34:15.549Z,5.27
2023-04-05T23:36:42.905Z,4.80
2023-04-05T23:39:10.516Z,5.60
2023-04-05T23:41:37.977Z,5.37
2023-04-05T23:44:05.707Z,5.50
2023-04-05T23:46:33.489Z,6.20
2023-04-05T23:49:00.842Z,5.57
2023-04-05T23:51:28.278Z,5.43
2023-04-05T23:53:56.044Z,5.37
2023-04-05T23:56:23.430Z,5.30
2023-04-05T23:58:50.942Z,5.80
